sensor_id;sensor_type;location;lat;lon;timestamp;pressure;altitude;pressure_sealevel;temperature;humidity
76994;BME280;66749;47.406;18.822;2023-06-10T00:00:21;99976.09;;;17.64;89.10
76994;BME280;66749;47.406;18.822;2023-06-10T00:00:54;99973.59;;;17.62;89.22
76994;BME280;66749;47.406;18.822;2023-06-10T00:01:27;99969.28;;;17.61;89.25
76994;BME280;66749;47.406;18.822;2023-06-10T00:02:00;99971.94;;;17.61;89.27
76994;BME280;66749;47.406;18.822;2023-06-10T00:02:32;99975.81;;;17.57;90.09
76994;BME280;66749;47.406;18.822;2023-06-10T00:03:03;99972.19;;;17.58;89.98
76994;BME280;66749;47.406;18.822;2023-06-10T00:03:36;99973.84;;;17.59;89.87
76994;BME280;66749;47.406;18.822;2023-06-10T00:04:08;99973.59;;;17.62;89.57
76994;BME280;66749;47.406;18.822;2023-06-10T00:04:40;99973.59;;;17.62;89.42
76994;BME280;66749;47.406;18.822;2023-06-10T00:05:13;99967.47;;;17.62;89.36
76994;BME280;66749;47.406;18.822;2023-06-10T00:05:45;99971.94;;;17.61;89.57
76994;BME280;66749;47.406;18.822;2023-06-10T00:06:17;99968.47;;;17.61;89.47
76994;BME280;66749;47.406;18.822;2023-06-10T00:06:49;99970.38;;;17.59;89.86
76994;BME280;66749;47.406;18.822;2023-06-10T00:07:22;99970.25;;;17.60;89.61
76994;BME280;66749;47.406;18.822;2023-06-10T00:07:54;99968.47;;;17.61;89.19
76994;BME280;66749;47.406;18.822;2023-06-10T00:08:26;99971.22;;;17.59;89.22
76994;BME280;66749;47.406;18.822;2023-06-10T00:08:58;99970.25;;;17.60;89.49
76994;BME280;66749;47.406;18.822;2023-06-10T00:09:30;99973.84;;;17.59;89.36
76994;BME280;66749;47.406;18.822;2023-06-10T00:10:02;99963.31;;;17.59;89.03
76994;BME280;66749;47.406;18.822;2023-06-10T00:10:37;99968.47;;;17.61;88.74
76994;BME280;66749;47.406;18.822;2023-06-10T00:11:10;99969.56;;;17.58;88.91
76994;BME280;66749;47.406;18.822;2023-06-10T00:11:42;99966.91;;;17.58;89.12
76994;BME280;66749;47.406;18.822;2023-06-10T00:12:13;99968.72;;;17.58;89.26
76994;BME280;66749;47.406;18.822;2023-06-10T00:12:46;99971.22;;;17.59;89.06
76994;BME280;66749;47.406;18.822;2023-06-10T00:13:18;99968.59;;;17.59;89.32
76994;BME280;66749;47.406;18.822;2023-06-10T00:13:50;99967.06;;;17.57;89.38
76994;BME280;66749;47.406;18.822;2023-06-10T00:14:22;99964.44;;;17.57;89.28
76994;BME280;66749;47.406;18.822;2023-06-10T00:14:53;99969.84;;;17.55;89.26
76994;BME280;66749;47.406;18.822;2023-06-10T00:15:25;99964.44;;;17.57;89.92
76994;BME280;66749;47.406;18.822;2023-06-10T00:15:57;99972.34;;;17.57;89.91
76994;BME280;66749;47.406;18.822;2023-06-10T00:16:29;99967.22;;;17.55;89.82
76994;BME280;66749;47.406;18.822;2023-06-10T00:17:02;99968.59;;;17.59;90.00
76994;BME280;66749;47.406;18.822;2023-06-10T00:17:34;99959.69;;;17.60;89.91
76994;BME280;66749;47.406;18.822;2023-06-10T00:18:06;99969.28;;;17.61;89.70
76994;BME280;66749;47.406;18.822;2023-06-10T00:18:38;99966.66;;;17.61;89.76
76994;BME280;66749;47.406;18.822;2023-06-10T00:19:10;99966.50;;;17.63;89.53
76994;BME280;66749;47.406;18.822;2023-06-10T00:19:45;99968.31;;;17.62;89.68
76994;BME280;66749;47.406;18.822;2023-06-10T00:20:18;99973.84;;;17.59;89.69
76994;BME280;66749;47.406;18.822;2023-06-10T00:20:53;99974.00;;;17.58;89.95
76994;BME280;66749;47.406;18.822;2023-06-10T00:21:31;99966.66;;;17.61;89.96
76994;BME280;66749;47.406;18.822;2023-06-10T00:22:08;99966.78;;;17.60;89.99
76994;BME280;66749;47.406;18.822;2023-06-10T00:22:42;99966.66;;;17.61;89.92
76994;BME280;66749;47.406;18.822;2023-06-10T00:23:17;99972.88;;;17.60;89.84
76994;BME280;66749;47.406;18.822;2023-06-10T00:23:49;99971.22;;;17.59;89.91
76994;BME280;66749;47.406;18.822;2023-06-10T00:24:22;99973.03;;;17.59;90.11
76994;BME280;66749;47.406;18.822;2023-06-10T00:24:53;99977.22;;;17.61;90.23
76994;BME280;66749;47.406;18.822;2023-06-10T00:25:25;99968.31;;;17.62;90.01
76994;BME280;66749;47.406;18.822;2023-06-10T00:25:58;99964.13;;;17.60;90.20
76994;BME280;66749;47.406;18.822;2023-06-10T00:26:31;99965.94;;;17.59;90.34
76994;BME280;66749;47.406;18.822;2023-06-10T00:27:04;99967.75;;;17.59;90.17
76994;BME280;66749;47.406;18.822;2023-06-10T00:27:36;99968.31;;;17.62;90.06
76994;BME280;66749;47.406;18.822;2023-06-10T00:28:08;99969.41;;;17.60;90.24
76994;BME280;66749;47.406;18.822;2023-06-10T00:28:40;99964.84;;;17.62;90.03
76994;BME280;66749;47.406;18.822;2023-06-10T00:29:12;99969.41;;;17.60;90.17
76994;BME280;66749;47.406;18.822;2023-06-10T00:29:45;99967.06;;;17.57;90.43
76994;BME280;66749;47.406;18.822;2023-06-10T00:30:17;99969.41;;;17.60;90.47
76994;BME280;66749;47.406;18.822;2023-06-10T00:30:49;99966.66;;;17.61;90.22
76994;BME280;66749;47.406;18.822;2023-06-10T00:31:20;99970.53;;;17.57;90.37
76994;BME280;66749;47.406;18.822;2023-06-10T00:31:52;99961.66;;;17.58;90.34
76994;BME280;66749;47.406;18.822;2023-06-10T00:32:29;99966.66;;;17.61;90.39
76994;BME280;66749;47.406;18.822;2023-06-10T00:33:01;99965.53;;;17.64;90.13
76994;BME280;66749;47.406;18.822;2023-06-10T00:33:32;99967.34;;;17.63;90.08
76994;BME280;66749;47.406;18.822;2023-06-10T00:34:04;99971.63;;;17.64;90.11
76994;BME280;66749;47.406;18.822;2023-06-10T00:34:36;99969.00;;;17.64;90.29
76994;BME280;66749;47.406;18.822;2023-06-10T00:35:08;99972.31;;;17.66;89.93
76994;BME280;66749;47.406;18.822;2023-06-10T00:35:40;99974.28;;;17.64;90.15
76994;BME280;66749;47.406;18.822;2023-06-10T00:36:12;99972.47;;;17.65;90.34
76994;BME280;66749;47.406;18.822;2023-06-10T00:36:44;99971.63;;;17.64;90.65
76994;BME280;66749;47.406;18.822;2023-06-10T00:37:16;99969.28;;;17.61;90.32
76994;BME280;66749;47.406;18.822;2023-06-10T00:37:48;99972.63;;;17.63;90.61
76994;BME280;66749;47.406;18.822;2023-06-10T00:38:20;99978.03;;;17.62;90.73
76994;BME280;66749;47.406;18.822;2023-06-10T00:38:52;99975.25;;;17.63;90.62
76994;BME280;66749;47.406;18.822;2023-06-10T00:39:24;99975.25;;;17.63;90.39
76994;BME280;66749;47.406;18.822;2023-06-10T00:39:56;99976.91;;;17.64;90.22
76994;BME280;66749;47.406;18.822;2023-06-10T00:40:28;99976.78;;;17.66;90.00
76994;BME280;66749;47.406;18.822;2023-06-10T00:40:59;99974.28;;;17.64;90.16
76994;BME280;66749;47.406;18.822;2023-06-10T00:41:32;99975.09;;;17.65;90.28
76994;BME280;66749;47.406;18.822;2023-06-10T00:42:06;99977.06;;;17.63;90.36
76994;BME280;66749;47.406;18.822;2023-06-10T00:42:38;99978.16;;;17.60;90.41
76994;BME280;66749;47.406;18.822;2023-06-10T00:43:10;99981.66;;;17.61;90.48
76994;BME280;66749;47.406;18.822;2023-06-10T00:43:42;99978.16;;;17.60;90.65
76994;BME280;66749;47.406;18.822;2023-06-10T00:44:15;99975.53;;;17.60;90.63
76994;BME280;66749;47.406;18.822;2023-06-10T00:44:47;99978.16;;;17.60;90.47
76994;BME280;66749;47.406;18.822;2023-06-10T00:45:18;99978.88;;;17.62;90.66
76994;BME280;66749;47.406;18.822;2023-06-10T00:45:51;99975.53;;;17.60;90.49
76994;BME280;66749;47.406;18.822;2023-06-10T00:46:24;99977.22;;;17.61;90.40
76994;BME280;66749;47.406;18.822;2023-06-10T00:46:57;99967.75;;;17.59;90.56
76994;BME280;66749;47.406;18.822;2023-06-10T00:47:29;99981.78;;;17.59;90.03
76994;BME280;66749;47.406;18.822;2023-06-10T00:48:03;99974.00;;;17.58;90.42
76994;BME280;66749;47.406;18.822;2023-06-10T00:48:35;99972.50;;;17.55;90.37
76994;BME280;66749;47.406;18.822;2023-06-10T00:49:08;99974.41;;;17.53;90.66
76994;BME280;66749;47.406;18.822;2023-06-10T00:49:40;99978.59;;;17.56;90.58
76994;BME280;66749;47.406;18.822;2023-06-10T00:50:12;99975.13;;;17.55;90.51
76994;BME280;66749;47.406;18.822;2023-06-10T00:50:46;99976.94;;;17.55;90.51
76994;BME280;66749;47.406;18.822;2023-06-10T00:51:18;99980.25;;;17.57;90.42
76994;BME280;66749;47.406;18.822;2023-06-10T00:51:51;99974.00;;;17.58;90.14
76994;BME280;66749;47.406;18.822;2023-06-10T00:52:27;99975.81;;;17.57;90.10
76994;BME280;66749;47.406;18.822;2023-06-10T00:53:00;99977.47;;;17.58;90.02
76994;BME280;66749;47.406;18.822;2023-06-10T00:53:33;99972.19;;;17.58;90.12
76994;BME280;66749;47.406;18.822;2023-06-10T00:54:05;99978.31;;;17.59;89.85
76994;BME280;66749;47.406;18.822;2023-06-10T00:54:39;99967.59;;;17.60;90.47
76994;BME280;66749;47.406;18.822;2023-06-10T00:55:11;99976.66;;;17.58;90.48
76994;BME280;66749;47.406;18.822;2023-06-10T00:55:43;99974.84;;;17.58;90.52
76994;BME280;66749;47.406;18.822;2023-06-10T00:56:15;99975.66;;;17.59;90.68
76994;BME280;66749;47.406;18.822;2023-06-10T00:56:48;99978.31;;;17.59;90.62
76994;BME280;66749;47.406;18.822;2023-06-10T00:57:21;99979.13;;;17.59;90.24
76994;BME280;66749;47.406;18.822;2023-06-10T00:57:53;99977.47;;;17.58;90.60
76994;BME280;66749;47.406;18.822;2023-06-10T00:58:26;99974.56;;;17.61;90.53
76994;BME280;66749;47.406;18.822;2023-06-10T00:58:59;99980.78;;;17.60;90.56
76994;BME280;66749;47.406;18.822;2023-06-10T00:59:31;99978.31;;;17.59;90.89
76994;BME280;66749;47.406;18.822;2023-06-10T01:00:04;99976.78;;;17.56;90.89
76994;BME280;66749;47.406;18.822;2023-06-10T01:00:39;99975.66;;;17.59;90.94
76994;BME280;66749;47.406;18.822;2023-06-10T01:01:11;99977.31;;;17.60;90.96
76994;BME280;66749;47.406;18.822;2023-06-10T01:01:45;99972.75;;;17.62;90.92
76994;BME280;66749;47.406;18.822;2023-06-10T01:02:18;99979.13;;;17.59;91.09
76994;BME280;66749;47.406;18.822;2023-06-10T01:02:51;99973.75;;;17.61;91.14
76994;BME280;66749;47.406;18.822;2023-06-10T01:03:24;99975.66;;;17.59;90.84
76994;BME280;66749;47.406;18.822;2023-06-10T01:03:56;99978.16;;;17.60;91.06
76994;BME280;66749;47.406;18.822;2023-06-10T01:04:30;99973.59;;;17.62;91.04
76994;BME280;66749;47.406;18.822;2023-06-10T01:05:02;99970.97;;;17.62;90.80
76994;BME280;66749;47.406;18.822;2023-06-10T01:05:35;99977.75;;;17.65;90.85
76994;BME280;66749;47.406;18.822;2023-06-10T01:06:30;99977.22;;;17.61;90.88
76994;BME280;66749;47.406;18.822;2023-06-10T01:07:21;99977.91;;;17.63;91.21
76994;BME280;66749;47.406;18.822;2023-06-10T01:08:09;99972.31;;;17.66;90.94
76994;BME280;66749;47.406;18.822;2023-06-10T01:09:55;99973.16;;;17.67;91.02
76994;BME280;66749;47.406;18.822;2023-06-10T01:10:33;99973.97;;;17.67;91.13
76994;BME280;66749;47.406;18.822;2023-06-10T01:11:16;99970.97;;;17.62;91.42
76994;BME280;66749;47.406;18.822;2023-06-10T01:12:12;99974.97;;;17.66;91.23
76994;BME280;66749;47.406;18.822;2023-06-10T01:12:52;99976.63;;;17.67;91.17
76994;BME280;66749;47.406;18.822;2023-06-10T01:13:28;99975.78;;;17.67;91.44
76994;BME280;66749;47.406;18.822;2023-06-10T01:14:01;99973.88;;;17.69;91.34
76994;BME280;66749;47.406;18.822;2023-06-10T01:14:35;99974.69;;;17.69;91.36
76994;BME280;66749;47.406;18.822;2023-06-10T01:15:08;99966.78;;;17.69;91.44
76994;BME280;66749;47.406;18.822;2023-06-10T01:15:42;99978.16;;;17.70;91.40
76994;BME280;66749;47.406;18.822;2023-06-10T01:16:14;99970.25;;;17.70;91.23
76994;BME280;66749;47.406;18.822;2023-06-10T01:16:46;99976.63;;;17.67;91.32
76994;BME280;66749;47.406;18.822;2023-06-10T01:17:20;99972.06;;;17.69;91.10
76994;BME280;66749;47.406;18.822;2023-06-10T01:18:00;99971.63;;;17.64;91.30
76994;BME280;66749;47.406;18.822;2023-06-10T01:18:33;99979.41;;;17.66;91.43
76994;BME280;66749;47.406;18.822;2023-06-10T01:19:05;99975.94;;;17.65;91.49
76994;BME280;66749;47.406;18.822;2023-06-10T01:19:38;99973.97;;;17.67;91.40
76994;BME280;66749;47.406;18.822;2023-06-10T01:20:10;99981.91;;;17.67;91.69
76994;BME280;66749;47.406;18.822;2023-06-10T01:20:44;99975.66;;;17.68;91.88
76994;BME280;66749;47.406;18.822;2023-06-10T01:21:22;99973.03;;;17.68;91.48
76994;BME280;66749;47.406;18.822;2023-06-10T01:21:58;99982.63;;;17.69;91.64
76994;BME280;66749;47.406;18.822;2023-06-10T01:22:32;99976.50;;;17.69;91.80
76994;BME280;66749;47.406;18.822;2023-06-10T01:23:09;99978.31;;;17.68;91.63
76994;BME280;66749;47.406;18.822;2023-06-10T01:23:41;99975.66;;;17.68;91.49
76994;BME280;66749;47.406;18.822;2023-06-10T01:24:13;99982.63;;;17.69;91.88
76994;BME280;66749;47.406;18.822;2023-06-10T01:24:45;99974.97;;;17.66;92.04
76994;BME280;66749;47.406;18.822;2023-06-10T01:25:18;99976.91;;;17.64;92.23
76994;BME280;66749;47.406;18.822;2023-06-10T01:25:58;99979.56;;;17.64;92.25
76994;BME280;66749;47.406;18.822;2023-06-10T01:26:34;99981.22;;;17.65;92.04
76994;BME280;66749;47.406;18.822;2023-06-10T01:27:12;99977.75;;;17.65;92.26
76994;BME280;66749;47.406;18.822;2023-06-10T01:27:49;99972.31;;;17.66;92.16
76994;BME280;66749;47.406;18.822;2023-06-10T01:29:14;99978.56;;;17.65;92.40
76994;BME280;66749;47.406;18.822;2023-06-10T01:29:55;99976.63;;;17.67;91.97
76994;BME280;66749;47.406;18.822;2023-06-10T01:30:39;99973.16;;;17.67;92.07
76994;BME280;66749;47.406;18.822;2023-06-10T01:31:31;99974.28;;;17.64;92.49
76994;BME280;66749;47.406;18.822;2023-06-10T01:32:40;99974.13;;;17.66;92.13
76994;BME280;66749;47.406;18.822;2023-06-10T01:33:17;99974.13;;;17.66;92.16
76994;BME280;66749;47.406;18.822;2023-06-10T01:33:52;99976.63;;;17.67;91.76
76994;BME280;66749;47.406;18.822;2023-06-10T01:34:26;99976.50;;;17.69;92.10
76994;BME280;66749;47.406;18.822;2023-06-10T01:34:59;99974.81;;;17.68;91.90
76994;BME280;66749;47.406;18.822;2023-06-10T01:35:33;99975.66;;;17.68;92.20
76994;BME280;66749;47.406;18.822;2023-06-10T01:36:08;99970.41;;;17.68;91.79
76994;BME280;66749;47.406;18.822;2023-06-10T01:36:47;99980.81;;;17.70;91.80
76994;BME280;66749;47.406;18.822;2023-06-10T01:37:23;99975.41;;;17.71;91.60
76994;BME280;66749;47.406;18.822;2023-06-10T01:37:58;99970.97;;;17.72;91.80
76994;BME280;66749;47.406;18.822;2023-06-10T01:38:34;99977.06;;;17.72;91.85
76994;BME280;66749;47.406;18.822;2023-06-10T01:39:10;99976.09;;;17.73;91.64
76994;BME280;66749;47.406;18.822;2023-06-10T01:39:45;99975.25;;;17.73;92.28
76994;BME280;66749;47.406;18.822;2023-06-10T01:40:17;99971.94;;;17.71;92.08
76994;BME280;66749;47.406;18.822;2023-06-10T01:40:49;99972.78;;;17.71;92.26
76994;BME280;66749;47.406;18.822;2023-06-10T01:41:24;99975.25;;;17.73;92.09
76994;BME280;66749;47.406;18.822;2023-06-10T01:41:57;99972.63;;;17.73;92.07
76994;BME280;66749;47.406;18.822;2023-06-10T01:42:29;99970.97;;;17.72;91.86
76994;BME280;66749;47.406;18.822;2023-06-10T01:43:02;99974.44;;;17.72;91.92
76994;BME280;66749;47.406;18.822;2023-06-10T01:43:34;99976.91;;;17.74;92.00
76994;BME280;66749;47.406;18.822;2023-06-10T01:44:06;99972.47;;;17.74;91.75
76994;BME280;66749;47.406;18.822;2023-06-10T01:44:39;99975.81;;;17.77;91.96
76994;BME280;66749;47.406;18.822;2023-06-10T01:45:11;99979.41;;;17.75;91.87
76994;BME280;66749;47.406;18.822;2023-06-10T01:45:43;99974.13;;;17.75;91.86
76994;BME280;66749;47.406;18.822;2023-06-10T01:46:15;99969.72;;;17.76;91.78
76994;BME280;66749;47.406;18.822;2023-06-10T01:46:51;99973.31;;;17.75;91.97
76994;BME280;66749;47.406;18.822;2023-06-10T01:47:23;99971.22;;;17.79;91.62
76994;BME280;66749;47.406;18.822;2023-06-10T01:47:55;99973.03;;;17.78;91.36
76994;BME280;66749;47.406;18.822;2023-06-10T01:48:27;99974.00;;;17.77;91.67
76994;BME280;66749;47.406;18.822;2023-06-10T01:48:59;99975.81;;;17.77;91.61
76994;BME280;66749;47.406;18.822;2023-06-10T01:49:31;99971.38;;;17.77;91.42
76994;BME280;66749;47.406;18.822;2023-06-10T01:50:03;99966.78;;;17.79;91.45
76994;BME280;66749;47.406;18.822;2023-06-10T01:50:35;99970.25;;;17.80;91.55
76994;BME280;66749;47.406;18.822;2023-06-10T01:51:07;99964.28;;;17.78;91.51
76994;BME280;66749;47.406;18.822;2023-06-10T01:51:38;99966.94;;;17.78;91.76
76994;BME280;66749;47.406;18.822;2023-06-10T01:52:10;99965.94;;;17.79;91.49
76994;BME280;66749;47.406;18.822;2023-06-10T01:52:42;99967.59;;;17.80;91.92
76994;BME280;66749;47.406;18.822;2023-06-10T01:53:14;99971.06;;;17.80;91.37
76994;BME280;66749;47.406;18.822;2023-06-10T01:53:46;99972.75;;;17.81;91.82
76994;BME280;66749;47.406;18.822;2023-06-10T01:54:18;99972.88;;;17.80;91.84
76994;BME280;66749;47.406;18.822;2023-06-10T01:54:50;99973.03;;;17.78;92.11
76994;BME280;66749;47.406;18.822;2023-06-10T01:55:21;99970.53;;;17.77;92.13
76994;BME280;66749;47.406;18.822;2023-06-10T01:55:53;99973.03;;;17.78;91.87
76994;BME280;66749;47.406;18.822;2023-06-10T01:56:25;99973.19;;;17.77;91.92
76994;BME280;66749;47.406;18.822;2023-06-10T01:56:57;99970.81;;;17.73;92.08
76994;BME280;66749;47.406;18.822;2023-06-10T01:57:29;99969.16;;;17.72;92.20
76994;BME280;66749;47.406;18.822;2023-06-10T01:58:01;99972.78;;;17.71;92.40
76994;BME280;66749;47.406;18.822;2023-06-10T01:58:33;99975.13;;;17.74;92.31
76994;BME280;66749;47.406;18.822;2023-06-10T01:59:05;99972.47;;;17.74;91.82
76994;BME280;66749;47.406;18.822;2023-06-10T01:59:36;99971.63;;;17.74;92.04
76994;BME280;66749;47.406;18.822;2023-06-10T02:00:10;99969.00;;;17.74;92.05
76994;BME280;66749;47.406;18.822;2023-06-10T02:00:42;99969.72;;;17.76;91.89
76994;BME280;66749;47.406;18.822;2023-06-10T02:01:14;99972.34;;;17.76;91.73
76994;BME280;66749;47.406;18.822;2023-06-10T02:01:46;99969.72;;;17.76;92.23
76994;BME280;66749;47.406;18.822;2023-06-10T02:02:18;99973.88;;;17.79;92.32
76994;BME280;66749;47.406;18.822;2023-06-10T02:02:50;99976.66;;;17.77;92.18
76994;BME280;66749;47.406;18.822;2023-06-10T02:03:22;99971.50;;;17.75;92.29
76994;BME280;66749;47.406;18.822;2023-06-10T02:03:54;99973.88;;;17.79;92.12
76994;BME280;66749;47.406;18.822;2023-06-10T02:04:26;99972.06;;;17.79;91.50
76994;BME280;66749;47.406;18.822;2023-06-10T02:04:58;99972.34;;;17.76;91.76
76994;BME280;66749;47.406;18.822;2023-06-10T02:05:30;99973.44;;;17.73;92.33
76994;BME280;66749;47.406;18.822;2023-06-10T02:06:02;99966.38;;;17.74;91.98
76994;BME280;66749;47.406;18.822;2023-06-10T02:06:33;99973.31;;;17.75;92.21
76994;BME280;66749;47.406;18.822;2023-06-10T02:07:06;99970.66;;;17.75;92.32
76994;BME280;66749;47.406;18.822;2023-06-10T02:07:38;99975.81;;;17.77;91.88
76994;BME280;66749;47.406;18.822;2023-06-10T02:08:10;99971.38;;;17.77;92.01
76994;BME280;66749;47.406;18.822;2023-06-10T02:08:42;99970.53;;;17.77;91.99
76994;BME280;66749;47.406;18.822;2023-06-10T02:09:14;99968.84;;;17.75;92.18
76994;BME280;66749;47.406;18.822;2023-06-10T02:09:46;99971.63;;;17.74;92.32
76994;BME280;66749;47.406;18.822;2023-06-10T02:10:18;99972.47;;;17.74;92.40
76994;BME280;66749;47.406;18.822;2023-06-10T02:10:49;99976.91;;;17.74;92.38
76994;BME280;66749;47.406;18.822;2023-06-10T02:11:21;99977.91;;;17.73;92.19
76994;BME280;66749;47.406;18.822;2023-06-10T02:11:53;99968.16;;;17.73;92.26
76994;BME280;66749;47.406;18.822;2023-06-10T02:12:25;99973.44;;;17.73;92.59
76994;BME280;66749;47.406;18.822;2023-06-10T02:12:57;99971.78;;;17.72;92.47
76994;BME280;66749;47.406;18.822;2023-06-10T02:13:29;99972.78;;;17.71;92.39
76994;BME280;66749;47.406;18.822;2023-06-10T02:14:01;99970.50;;;17.67;92.23
76994;BME280;66749;47.406;18.822;2023-06-10T02:14:33;99972.78;;;17.71;92.32
76994;BME280;66749;47.406;18.822;2023-06-10T02:15:05;99974.44;;;17.72;92.07
76994;BME280;66749;47.406;18.822;2023-06-10T02:15:37;99971.78;;;17.72;92.23
76994;BME280;66749;47.406;18.822;2023-06-10T02:16:09;99967.50;;;17.71;92.21
76994;BME280;66749;47.406;18.822;2023-06-10T02:16:44;99975.53;;;17.70;92.39
76994;BME280;66749;47.406;18.822;2023-06-10T02:17:18;99974.44;;;17.72;92.54
76994;BME280;66749;47.406;18.822;2023-06-10T02:17:52;99974.69;;;17.69;92.53
76994;BME280;66749;47.406;18.822;2023-06-10T02:18:24;99975.53;;;17.70;92.38
76994;BME280;66749;47.406;18.822;2023-06-10T02:18:56;99974.97;;;17.66;92.55
76994;BME280;66749;47.406;18.822;2023-06-10T02:19:27;99977.22;;;17.61;92.76
76994;BME280;66749;47.406;18.822;2023-06-10T02:19:59;99977.22;;;17.61;92.51
76994;BME280;66749;47.406;18.822;2023-06-10T02:20:35;99971.09;;;17.61;92.90
76994;BME280;66749;47.406;18.822;2023-06-10T02:21:07;99976.38;;;17.61;92.97
76994;BME280;66749;47.406;18.822;2023-06-10T02:21:39;99976.38;;;17.61;93.26
76994;BME280;66749;47.406;18.822;2023-06-10T02:22:11;99974.69;;;17.60;93.06
76994;BME280;66749;47.406;18.822;2023-06-10T02:22:43;99971.09;;;17.61;92.99
76994;BME280;66749;47.406;18.822;2023-06-10T02:23:15;99977.22;;;17.61;92.80
76994;BME280;66749;47.406;18.822;2023-06-10T02:23:46;99969.41;;;17.60;92.97
76994;BME280;66749;47.406;18.822;2023-06-10T02:24:18;99970.25;;;17.60;92.95
76994;BME280;66749;47.406;18.822;2023-06-10T02:24:50;99968.47;;;17.61;93.02
76994;BME280;66749;47.406;18.822;2023-06-10T02:25:22;99971.94;;;17.61;93.06
76994;BME280;66749;47.406;18.822;2023-06-10T02:25:54;99978.31;;;17.59;93.05
76994;BME280;66749;47.406;18.822;2023-06-10T02:26:26;99973.47;;;17.54;93.38
76994;BME280;66749;47.406;18.822;2023-06-10T02:26:58;99968.88;;;17.56;93.34
76994;BME280;66749;47.406;18.822;2023-06-10T02:27:32;99967.06;;;17.57;93.51
76994;BME280;66749;47.406;18.822;2023-06-10T02:28:04;99976.66;;;17.58;92.96
76994;BME280;66749;47.406;18.822;2023-06-10T02:28:36;99971.38;;;17.58;93.04
76994;BME280;66749;47.406;18.822;2023-06-10T02:29:07;99971.78;;;17.53;93.58
76994;BME280;66749;47.406;18.822;2023-06-10T02:29:39;99976.38;;;17.51;93.56
76994;BME280;66749;47.406;18.822;2023-06-10T02:30:12;99972.91;;;17.51;93.53
76994;BME280;66749;47.406;18.822;2023-06-10T02:30:45;99968.59;;;17.50;93.37
76994;BME280;66749;47.406;18.822;2023-06-10T02:31:18;99972.06;;;17.50;93.65
76994;BME280;66749;47.406;18.822;2023-06-10T02:31:51;99970.94;;;17.53;93.53
76994;BME280;66749;47.406;18.822;2023-06-10T02:32:24;99970.13;;;17.52;93.53
76994;BME280;66749;47.406;18.822;2023-06-10T02:32:57;99965.81;;;17.51;93.50
76994;BME280;66749;47.406;18.822;2023-06-10T02:33:31;99971.91;;;17.52;93.43
76994;BME280;66749;47.406;18.822;2023-06-10T02:34:03;99975.53;;;17.51;93.47
76994;BME280;66749;47.406;18.822;2023-06-10T02:34:35;99973.88;;;17.50;93.72
76994;BME280;66749;47.406;18.822;2023-06-10T02:35:08;99972.91;;;17.51;93.52
76994;BME280;66749;47.406;18.822;2023-06-10T02:35:41;99972.91;;;17.51;93.49
76994;BME280;66749;47.406;18.822;2023-06-10T02:36:13;99972.75;;;17.52;93.52
76994;BME280;66749;47.406;18.822;2023-06-10T02:36:47;99969.13;;;17.53;93.33
76994;BME280;66749;47.406;18.822;2023-06-10T02:37:22;99974.41;;;17.53;93.23
76994;BME280;66749;47.406;18.822;2023-06-10T02:37:54;99973.72;;;17.51;93.38
76994;BME280;66749;47.406;18.822;2023-06-10T02:38:26;99968.59;;;17.50;93.68
76994;BME280;66749;47.406;18.822;2023-06-10T02:38:58;99971.09;;;17.51;93.41
76994;BME280;66749;47.406;18.822;2023-06-10T02:39:30;99980.66;;;17.52;93.70
76994;BME280;66749;47.406;18.822;2023-06-10T02:40:02;99973.03;;;17.49;93.69
76994;BME280;66749;47.406;18.822;2023-06-10T02:40:35;99976.22;;;17.53;93.74
76994;BME280;66749;47.406;18.822;2023-06-10T02:41:06;99980.66;;;17.52;93.60
76994;BME280;66749;47.406;18.822;2023-06-10T02:41:38;99977.91;;;17.54;93.51
76994;BME280;66749;47.406;18.822;2023-06-10T02:42:10;99975.13;;;17.55;93.24
76994;BME280;66749;47.406;18.822;2023-06-10T02:42:42;99980.66;;;17.52;93.38
76994;BME280;66749;47.406;18.822;2023-06-10T02:43:14;99972.91;;;17.51;93.27
76994;BME280;66749;47.406;18.822;2023-06-10T02:43:46;99975.53;;;17.51;93.58
76994;BME280;66749;47.406;18.822;2023-06-10T02:44:18;99979.00;;;17.51;93.56
76994;BME280;66749;47.406;18.822;2023-06-10T02:44:50;99977.19;;;17.52;93.07
76994;BME280;66749;47.406;18.822;2023-06-10T02:45:22;99979.69;;;17.53;93.12
76994;BME280;66749;47.406;18.822;2023-06-10T02:45:53;99980.81;;;17.51;93.22
76994;BME280;66749;47.406;18.822;2023-06-10T02:46:25;99974.41;;;17.53;92.88
76994;BME280;66749;47.406;18.822;2023-06-10T02:46:57;99982.34;;;17.53;92.89
76994;BME280;66749;47.406;18.822;2023-06-10T02:47:29;99978.31;;;17.49;93.08
76994;BME280;66749;47.406;18.822;2023-06-10T02:48:01;99985.41;;;17.48;93.36
76994;BME280;66749;47.406;18.822;2023-06-10T02:48:41;99980.00;;;17.50;93.23
76994;BME280;66749;47.406;18.822;2023-06-10T02:49:14;99979.84;;;17.52;93.22
76994;BME280;66749;47.406;18.822;2023-06-10T02:49:46;99981.50;;;17.53;92.78
76994;BME280;66749;47.406;18.822;2023-06-10T02:50:18;99980.56;;;17.54;92.89
76994;BME280;66749;47.406;18.822;2023-06-10T02:50:49;99978.03;;;17.52;93.14
76994;BME280;66749;47.406;18.822;2023-06-10T02:51:21;99978.88;;;17.53;93.11
76994;BME280;66749;47.406;18.822;2023-06-10T02:51:54;99972.75;;;17.52;93.15
76994;BME280;66749;47.406;18.822;2023-06-10T02:52:26;99972.75;;;17.52;93.28
76994;BME280;66749;47.406;18.822;2023-06-10T02:52:58;99982.34;;;17.53;93.27
76994;BME280;66749;47.406;18.822;2023-06-10T02:53:29;99978.03;;;17.52;93.27
76994;BME280;66749;47.406;18.822;2023-06-10T02:54:01;99979.69;;;17.53;93.36
76994;BME280;66749;47.406;18.822;2023-06-10T02:54:33;99981.66;;;17.51;93.19
76994;BME280;66749;47.406;18.822;2023-06-10T02:55:05;99976.38;;;17.51;93.28
76994;BME280;66749;47.406;18.822;2023-06-10T02:55:38;99979.16;;;17.50;93.25
76994;BME280;66749;47.406;18.822;2023-06-10T02:56:11;99981.66;;;17.51;93.25